createdAt,value
2022-07-27T00:01:50.594Z,75.70
2022-07-27T00:04:18.594Z,78.20
2022-07-27T00:06:45.602Z,78.14
2022-07-27T00:09:12.703Z,79.62
2022-07-27T00:11:39.678Z,79.46
2022-07-27T00:14:06.342Z,77.76
2022-07-27T00:16:33.147Z,77.25
2022-07-27T00:19:00.169Z,76.59
2022-07-27T00:21:27.021Z,76.03
2022-07-27T00:23:54.680Z,76.18
2022-07-27T00:26:21.625Z,77.38
2022-07-27T00:28:49.051Z,76.82
2022-07-27T00:31:16.225Z,77.44
2022-07-27T00:33:43.064Z,77.00
2022-07-27T00:36:10.047Z,76.88
2022-07-27T00:38:36.721Z,75.95
2022-07-27T00:41:03.457Z,75.27
2022-07-27T00:43:30.375Z,75.37
2022-07-27T00:45:57.016Z,75.49
2022-07-27T00:48:23.654Z,74.70
2022-07-27T00:50:51.890Z,74.36
2022-07-27T00:53:18.501Z,73.19
2022-07-27T00:55:45.888Z,74.15
2022-07-27T00:58:12.605Z,73.55
2022-07-27T01:00:39.760Z,72.86
2022-07-27T01:03:08.641Z,72.55
2022-07-27T01:05:40.033Z,72.93
2022-07-27T01:08:12.566Z,72.84
2022-07-27T01:10:40.610Z,73.62
2022-07-27T01:13:12.500Z,73.57
2022-07-27T01:15:41.382Z,73.87
2022-07-27T01:18:27.159Z,72.31
2022-07-27T01:20:54.299Z,71.76
2022-07-27T01:23:21.576Z,71.90
2022-07-27T01:25:48.452Z,73.03
2022-07-27T01:28:15.123Z,71.80
2022-07-27T01:30:41.772Z,70.85
2022-07-27T01:33:10.068Z,72.30
2022-07-27T01:35:38.761Z,71.25
2022-07-27T01:38:07.069Z,71.63
2022-07-27T01:40:36.363Z,71.75
2022-07-27T01:43:05.181Z,71.40
2022-07-27T01:45:31.827Z,71.12
2022-07-27T01:47:58.570Z,73.67
2022-07-27T01:50:25.206Z,72.91
2022-07-27T01:52:51.809Z,73.05
2022-07-27T01:55:18.412Z,71.58
2022-07-27T01:57:44.985Z,71.75
2022-07-27T02:00:12.424Z,71.20
2022-07-27T02:02:40.056Z,71.48
2022-07-27T02:05:08.230Z,72.27
2022-07-27T02:07:34.859Z,72.26
2022-07-27T02:10:01.694Z,70.50
2022-07-27T02:12:36.673Z,70.93
2022-07-27T02:15:06.232Z,70.08
2022-07-27T02:17:33.314Z,71.30
2022-07-27T02:20:02.348Z,69.90
2022-07-27T02:22:29.103Z,70.22
2022-07-27T02:24:56.099Z,69.82
2022-07-27T02:27:22.930Z,69.78
2022-07-27T02:29:49.682Z,70.28
2022-07-27T02:32:16.425Z,68.67
2022-07-27T02:34:43.271Z,69.40
2022-07-27T02:37:10.064Z,69.06
2022-07-27T02:39:36.959Z,71.54
2022-07-27T02:42:04.082Z,70.44
2022-07-27T02:44:30.768Z,73.13
2022-07-27T02:46:57.458Z,71.65
2022-07-27T02:49:24.208Z,72.17
2022-07-27T02:51:52.786Z,71.00
2022-07-27T02:54:25.153Z,70.49
2022-07-27T02:56:53.132Z,71.64
2022-07-27T02:59:20.771Z,70.69
2022-07-27T03:01:48.073Z,72.93
2022-07-27T03:04:15.767Z,77.91
2022-07-27T03:06:43.090Z,79.90
2022-07-27T03:09:10.412Z,80.42
2022-07-27T03:11:37.927Z,80.86
2022-07-27T03:14:04.830Z,80.98
2022-07-27T03:16:31.565Z,80.52
2022-07-27T03:18:58.749Z,79.22
2022-07-27T03:21:25.483Z,78.26
2022-07-27T03:23:52.282Z,77.04
2022-07-27T03:26:19.285Z,76.91
2022-07-27T03:28:46.022Z,76.66
2022-07-27T03:31:12.752Z,76.87
2022-07-27T03:33:39.387Z,76.57
2022-07-27T03:36:07.249Z,79.02
2022-07-27T03:38:33.865Z,81.15
2022-07-27T03:41:00.525Z,84.40
2022-07-27T03:43:27.169Z,87.21
2022-07-27T03:45:53.821Z,89.09
2022-07-27T03:48:20.440Z,89.72
2022-07-27T03:50:47.045Z,90.25
2022-07-27T03:53:13.756Z,90.66
2022-07-27T03:55:40.466Z,90.78
2022-07-27T03:58:07.193Z,91.59
2022-07-27T04:00:33.820Z,91.59
2022-07-27T04:03:00.540Z,91.77
2022-07-27T04:05:29.360Z,92.11
2022-07-27T04:07:56.867Z,92.06
2022-07-27T04:10:24.987Z,91.90
2022-07-27T04:12:56.029Z,91.34
2022-07-27T04:15:23.291Z,90.91
2022-07-27T04:17:55.407Z,90.11
2022-07-27T04:20:24.551Z,89.94
2022-07-27T04:22:51.321Z,90.99
2022-07-27T04:25:18.178Z,91.48
2022-07-27T04:27:44.798Z,91.01
2022-07-27T04:30:12.033Z,90.68
2022-07-27T04:32:39.186Z,90.08
2022-07-27T04:35:07.360Z,89.53
2022-07-27T04:37:35.050Z,88.42
2022-07-27T04:40:02.041Z,87.69
2022-07-27T04:42:29.947Z,87.79
2022-07-27T04:44:57.021Z,87.63
2022-07-27T04:47:24.189Z,89.10
2022-07-27T04:49:50.964Z,90.04
2022-07-27T04:52:17.653Z,90.54
2022-07-27T04:54:45.855Z,91.06
2022-07-27T04:57:12.494Z,91.39
2022-07-27T04:59:39.085Z,91.37
2022-07-27T05:02:05.791Z,90.85
2022-07-27T05:04:32.538Z,91.19
2022-07-27T05:06:59.212Z,90.84
2022-07-27T05:09:25.910Z,90.36
2022-07-27T05:11:53.242Z,89.86
2022-07-27T05:14:21.340Z,89.27
2022-07-27T05:16:49.224Z,88.66
2022-07-27T05:19:16.128Z,87.72
2022-07-27T05:21:43.065Z,86.58
2022-07-27T05:24:10.178Z,85.46
2022-07-27T05:26:37.647Z,84.88
2022-07-27T05:29:04.758Z,84.38
2022-07-27T05:31:31.483Z,83.90
2022-07-27T05:33:58.646Z,83.92
2022-07-27T05:36:27.361Z,83.13
2022-07-27T05:38:54.118Z,81.88
2022-07-27T05:41:24.831Z,82.11
2022-07-27T05:43:52.077Z,81.27
2022-07-27T05:46:18.754Z,81.74
2022-07-27T05:48:45.564Z,81.42
2022-07-27T05:51:12.223Z,82.63
2022-07-27T05:53:39.402Z,83.20
2022-07-27T05:56:09.114Z,83.64
2022-07-27T05:58:35.778Z,82.68
2022-07-27T06:01:02.601Z,82.35
2022-07-27T06:03:29.496Z,82.40
2022-07-27T06:06:16.120Z,82.11
2022-07-27T06:08:42.898Z,83.39
2022-07-27T06:11:09.686Z,85.46
2022-07-27T06:13:37.113Z,85.28
2022-07-27T06:16:11.435Z,86.04
2022-07-27T06:18:38.488Z,86.21
2022-07-27T06:21:05.784Z,85.95
2022-07-27T06:23:32.659Z,85.65
2022-07-27T06:26:00.422Z,85.12
2022-07-27T06:28:27.060Z,84.99
2022-07-27T06:30:53.776Z,85.56
2022-07-27T06:33:30.852Z,84.58
2022-07-27T06:35:59.649Z,83.83
2022-07-27T06:38:28.861Z,83.67
2022-07-27T06:40:56.036Z,83.92
2022-07-27T06:43:28.431Z,84.91
2022-07-27T06:45:55.252Z,83.05
2022-07-27T06:48:22.559Z,82.86
2022-07-27T06:50:49.963Z,83.47
2022-07-27T06:53:20.881Z,82.23
2022-07-27T06:55:47.987Z,82.13
2022-07-27T06:58:17.162Z,82.62
2022-07-27T07:00:43.989Z,82.70
2022-07-27T07:03:11.421Z,82.43
2022-07-27T07:05:44.282Z,81.32
2022-07-27T07:08:12.093Z,82.53
2022-07-27T07:10:40.319Z,83.61
2022-07-27T07:13:08.087Z,83.88
2022-07-27T07:15:38.611Z,85.01
2022-07-27T07:18:06.698Z,86.90
2022-07-27T07:20:35.275Z,87.21
2022-07-27T07:23:02.045Z,85.61
2022-07-27T07:25:29.259Z,85.63
2022-07-27T07:27:56.614Z,85.03
2022-07-27T07:30:23.810Z,85.50
2022-07-27T07:32:50.544Z,88.37
2022-07-27T07:35:17.493Z,87.78
2022-07-27T07:37:50.605Z,88.13
2022-07-27T07:40:42.698Z,87.60
2022-07-27T07:43:08.355Z,87.30
2022-07-27T07:45:50.782Z,89.51
2022-07-27T07:48:19.648Z,88.13
2022-07-27T07:50:46.361Z,87.72
2022-07-27T07:53:19.916Z,86.93
2022-07-27T07:55:46.601Z,87.09
2022-07-27T07:58:15.715Z,88.85
2022-07-27T08:00:43.794Z,88.20
2022-07-27T08:03:10.657Z,87.54
2022-07-27T08:05:37.675Z,87.53
2022-07-27T08:08:04.591Z,88.90
2022-07-27T08:10:31.567Z,89.59
2022-07-27T08:12:58.430Z,90.48
2022-07-27T08:15:35.340Z,88.96
2022-07-27T08:18:06.950Z,88.21
2022-07-27T08:20:34.116Z,86.71
2022-07-27T08:23:01.443Z,87.25
2022-07-27T08:25:28.287Z,86.52
2022-07-27T08:27:55.500Z,87.02
2022-07-27T08:30:23.782Z,87.08
2022-07-27T08:32:59.776Z,87.76
2022-07-27T08:35:28.083Z,87.03
2022-07-27T08:37:55.864Z,87.18
2022-07-27T08:40:42.628Z,88.63
2022-07-27T08:43:18.967Z,88.16
2022-07-27T08:45:55.641Z,87.88
2022-07-27T08:48:25.593Z,86.84
2022-07-27T08:50:52.737Z,87.20
2022-07-27T08:53:19.727Z,87.19
2022-07-27T08:55:47.666Z,87.07
2022-07-27T08:58:16.066Z,86.86
2022-07-27T09:00:45.169Z,85.43
2022-07-27T09:03:18.896Z,87.71
2022-07-27T09:05:49.536Z,84.97
2022-07-27T09:08:21.339Z,82.82
2022-07-27T09:10:48.493Z,83.39
2022-07-27T09:13:34.567Z,82.26
2022-07-27T09:16:20.839Z,79.63
2022-07-27T09:19:01.436Z,78.81
2022-07-27T09:21:28.513Z,78.76
2022-07-27T09:24:23.551Z,79.18
2022-07-27T09:27:03.170Z,78.09
2022-07-27T09:29:34.728Z,77.06
2022-07-27T09:32:14.496Z,77.45
2022-07-27T09:34:41.387Z,76.98
2022-07-27T09:37:09.410Z,77.12
2022-07-27T09:39:35.998Z,76.34
2022-07-27T09:42:03.264Z,75.26
2022-07-27T09:44:43.136Z,73.75
2022-07-27T09:47:22.955Z,74.05
2022-07-27T09:49:49.712Z,72.51
2022-07-27T09:52:28.736Z,73.58
2022-07-27T09:55:03.043Z,72.08
2022-07-27T09:57:29.885Z,69.83
2022-07-27T10:00:13.934Z,70.41
2022-07-27T10:02:42.860Z,70.85
2022-07-27T10:05:10.502Z,70.71
2022-07-27T10:07:38.205Z,69.13
2022-07-27T10:10:05.320Z,67.63
2022-07-27T10:12:32.661Z,68.70
2022-07-27T10:14:59.471Z,69.35
2022-07-27T10:17:26.976Z,68.75
2022-07-27T10:19:56.873Z,68.92
2022-07-27T10:22:52.172Z,68.99
2022-07-27T10:25:20.054Z,65.87
2022-07-27T10:27:49.218Z,64.51
2022-07-27T10:30:23.919Z,64.84
2022-07-27T10:32:57.011Z,63.74
2022-07-27T10:35:34.270Z,64.32
2022-07-27T10:38:16.707Z,66.48
2022-07-27T10:40:44.183Z,64.80
2022-07-27T10:43:22.248Z,64.02
2022-07-27T10:46:01.634Z,61.99
2022-07-27T10:48:37.447Z,62.79
2022-07-27T10:51:08.511Z,62.74
2022-07-27T10:54:10.507Z,61.62
2022-07-27T10:56:47.358Z,62.58
2022-07-27T10:59:14.517Z,61.59
2022-07-27T11:01:58.055Z,63.74
2022-07-27T11:04:24.935Z,63.48
2022-07-27T11:07:23.986Z,63.68
2022-07-27T11:10:06.296Z,64.10
2022-07-27T11:12:34.786Z,64.21
2022-07-27T11:15:01.578Z,63.30
2022-07-27T11:17:52.847Z,61.83
2022-07-27T11:20:22.796Z,63.18
2022-07-27T11:25:36.073Z,63.99
2022-07-27T11:28:09.541Z,63.27
2022-07-27T11:30:36.514Z,63.05
2022-07-27T11:33:05.991Z,62.61
2022-07-27T11:35:32.739Z,64.72
2022-07-27T11:38:05.686Z,63.48
2022-07-27T11:43:36.744Z,62.22
2022-07-27T11:46:27.378Z,62.12
2022-07-27T11:49:09.624Z,62.79
2022-07-27T11:51:49.114Z,62.38
2022-07-27T11:54:26.556Z,61.43
2022-07-27T11:56:57.705Z,62.03
2022-07-27T11:59:28.754Z,61.93
2022-07-27T12:01:56.955Z,62.23
2022-07-27T12:04:25.324Z,61.53
2022-07-27T12:06:57.438Z,62.34
2022-07-27T12:09:25.407Z,61.19
2022-07-27T12:12:01.405Z,61.07
2022-07-27T12:14:58.038Z,62.42
2022-07-27T12:17:35.685Z,62.21
2022-07-27T12:20:10.495Z,61.33
2022-07-27T12:22:46.172Z,61.13
2022-07-27T12:25:18.995Z,60.89
2022-07-27T12:27:59.257Z,60.64
2022-07-27T12:30:44.918Z,60.32
2022-07-27T12:33:39.695Z,62.48
2022-07-27T12:36:09.475Z,62.04
2022-07-27T12:38:43.725Z,61.77
2022-07-27T12:41:11.536Z,62.20
2022-07-27T12:43:38.477Z,61.62
2022-07-27T12:46:13.457Z,63.19
2022-07-27T12:48:42.236Z,62.95
2022-07-27T12:51:10.203Z,62.75
2022-07-27T12:53:38.188Z,62.31
2022-07-27T12:56:08.115Z,62.24
2022-07-27T12:58:36.038Z,62.77
2022-07-27T13:01:03.158Z,62.07
2022-07-27T13:03:29.930Z,62.64
2022-07-27T13:05:56.817Z,61.53
2022-07-27T13:08:23.564Z,62.24
2022-07-27T13:10:52.259Z,62.91
2022-07-27T13:13:24.297Z,62.37
2022-07-27T13:15:50.995Z,62.58
2022-07-27T13:18:23.159Z,64.17
2022-07-27T13:20:51.508Z,65.01
2022-07-27T13:23:18.336Z,65.69
2022-07-27T13:25:45.192Z,67.82
2022-07-27T13:28:12.224Z,66.41
2022-07-27T13:30:39.020Z,66.42
2022-07-27T13:33:05.747Z,67.78
2022-07-27T13:35:32.459Z,68.49
2022-07-27T13:37:59.506Z,70.68
2022-07-27T13:40:26.293Z,73.16
2022-07-27T13:42:53.065Z,75.16
2022-07-27T13:45:19.778Z,77.42
2022-07-27T13:47:46.470Z,79.00
2022-07-27T13:50:18.260Z,80.40
2022-07-27T13:52:47.314Z,81.90
2022-07-27T13:55:15.507Z,83.91
2022-07-27T13:57:42.633Z,85.24
2022-07-27T14:00:10.249Z,87.37
2022-07-27T14:02:36.983Z,88.39
2022-07-27T14:05:06.014Z,88.90
2022-07-27T14:07:33.867Z,91.44
2022-07-27T14:10:19.308Z,90.79
2022-07-27T14:12:46.054Z,91.23
2022-07-27T14:15:13.147Z,91.00
2022-07-27T14:17:39.917Z,92.19
2022-07-27T14:20:07.255Z,93.39
2022-07-27T14:22:34.030Z,93.56
2022-07-27T14:25:00.679Z,93.34
2022-07-27T14:27:33.602Z,94.37
2022-07-27T14:30:06.984Z,94.99
2022-07-27T14:32:34.826Z,93.22
2022-07-27T14:35:01.740Z,92.71
2022-07-27T14:37:28.389Z,93.86
2022-07-27T14:39:55.030Z,93.28
2022-07-27T14:42:23.903Z,92.68
2022-07-27T14:44:50.529Z,92.74
2022-07-27T14:47:17.345Z,91.92
2022-07-27T14:49:44.144Z,91.90
2022-07-27T14:52:13.588Z,90.58
2022-07-27T14:54:45.427Z,89.91
2022-07-27T14:57:12.370Z,89.86
2022-07-27T14:59:40.084Z,89.16
2022-07-27T15:02:07.670Z,87.53
2022-07-27T15:04:34.559Z,86.66
2022-07-27T15:07:02.025Z,86.79
2022-07-27T15:09:30.280Z,86.21
2022-07-27T15:11:58.391Z,85.10
2022-07-27T15:14:25.346Z,85.64
2022-07-27T15:16:53.613Z,85.00
2022-07-27T15:19:22.898Z,84.16
2022-07-27T15:21:49.688Z,83.19
2022-07-27T15:24:16.725Z,82.79
2022-07-27T15:26:43.382Z,81.81
2022-07-27T15:29:14.770Z,81.96
2022-07-27T15:31:41.759Z,81.24
2022-07-27T15:34:08.489Z,80.76
2022-07-27T15:36:37.692Z,80.54
2022-07-27T15:39:09.894Z,80.56
2022-07-27T15:41:37.769Z,79.97
2022-07-27T15:44:06.003Z,79.68
2022-07-27T15:46:41.016Z,78.79
2022-07-27T15:49:09.065Z,78.77
2022-07-27T15:51:36.055Z,77.81
2022-07-27T15:54:02.693Z,77.82
2022-07-27T15:56:29.427Z,77.62
2022-07-27T15:58:56.162Z,77.00
2022-07-27T16:01:22.882Z,76.85
2022-07-27T16:04:01.893Z,75.00
2022-07-27T16:06:29.279Z,74.11
2022-07-27T16:08:56.365Z,75.62
2022-07-27T16:11:23.030Z,75.70
2022-07-27T16:13:49.644Z,74.30
2022-07-27T16:16:22.253Z,73.05
2022-07-27T16:18:51.121Z,72.65
2022-07-27T16:21:21.738Z,72.77
2022-07-27T16:23:49.099Z,72.91
2022-07-27T16:26:16.006Z,71.64
2022-07-27T16:28:45.781Z,71.68
2022-07-27T16:31:18.653Z,71.49
2022-07-27T16:33:46.307Z,71.68
2022-07-27T16:36:13.248Z,71.83
2022-07-27T16:38:49.539Z,71.88
2022-07-27T16:41:18.983Z,71.46
2022-07-27T16:43:45.885Z,71.60
2022-07-27T16:46:12.743Z,71.82
2022-07-27T16:48:42.621Z,71.86
2022-07-27T16:51:11.889Z,72.42
2022-07-27T16:53:45.343Z,71.61
2022-07-27T16:56:14.585Z,71.07
2022-07-27T16:58:41.332Z,71.39
2022-07-27T17:01:15.131Z,70.83
2022-07-27T17:03:53.617Z,70.58
2022-07-27T17:06:21.020Z,70.54
2022-07-27T17:08:48.505Z,70.18
2022-07-27T17:11:17.504Z,70.15
2022-07-27T17:13:49.048Z,70.42
2022-07-27T17:16:18.600Z,69.63
2022-07-27T17:18:47.531Z,69.09
2022-07-27T17:21:14.639Z,68.97
2022-07-27T17:23:43.962Z,68.92
2022-07-27T17:26:12.466Z,67.67
2022-07-27T17:28:40.531Z,68.09
2022-07-27T17:31:12.725Z,67.94
2022-07-27T17:33:40.452Z,67.83
2022-07-27T17:36:12.265Z,68.10
2022-07-27T17:38:45.766Z,67.87
2022-07-27T17:41:14.215Z,68.13
2022-07-27T17:43:43.632Z,67.25
2022-07-27T17:46:11.474Z,67.99
2022-07-27T17:48:41.962Z,67.09
2022-07-27T17:51:12.427Z,64.57
2022-07-27T17:53:41.812Z,64.39
2022-07-27T17:56:11.039Z,65.57
2022-07-27T17:58:42.622Z,66.38
2022-07-27T18:01:09.482Z,65.79
2022-07-27T18:03:38.635Z,64.98
2022-07-27T18:06:05.421Z,64.36
2022-07-27T18:08:32.097Z,65.22
2022-07-27T18:11:03.875Z,64.11
2022-07-27T18:13:39.075Z,62.83
2022-07-27T18:16:08.004Z,62.76
2022-07-27T18:18:36.404Z,62.57
2022-07-27T18:21:08.867Z,62.59
2022-07-27T18:23:37.711Z,62.34
2022-07-27T18:26:05.169Z,61.72
2022-07-27T18:28:39.003Z,62.64
2022-07-27T18:31:06.583Z,64.92
2022-07-27T18:33:36.274Z,63.51
2022-07-27T18:36:03.947Z,63.05
2022-07-27T18:38:30.628Z,64.31
2022-07-27T18:40:57.368Z,65.23
2022-07-27T18:43:24.066Z,65.88
2022-07-27T18:45:51.107Z,66.42
2022-07-27T18:48:17.848Z,66.56
2022-07-27T18:50:45.868Z,67.42
2022-07-27T18:53:14.877Z,67.22
2022-07-27T18:55:41.671Z,67.34
2022-07-27T18:58:08.590Z,67.48
2022-07-27T19:00:35.334Z,67.52
2022-07-27T19:03:02.191Z,67.21
2022-07-27T19:05:40.804Z,67.57
2022-07-27T19:08:28.777Z,67.53
2022-07-27T19:10:55.420Z,67.73
2022-07-27T19:13:22.238Z,67.76
2022-07-27T19:15:51.640Z,67.52
2022-07-27T19:18:20.927Z,67.53
2022-07-27T19:20:50.219Z,67.75
2022-07-27T19:23:17.116Z,67.75
2022-07-27T19:25:50.747Z,68.09
2022-07-27T19:28:20.417Z,68.46
2022-07-27T19:30:49.864Z,69.29
2022-07-27T19:33:18.276Z,69.39
2022-07-27T19:35:45.009Z,69.41
2022-07-27T19:38:14.210Z,69.84
2022-07-27T19:40:45.301Z,70.28
2022-07-27T19:43:13.535Z,70.60
2022-07-27T19:45:41.079Z,70.97
2022-07-27T19:48:08.344Z,70.78
2022-07-27T19:50:35.290Z,70.97
2022-07-27T19:53:05.055Z,71.11
2022-07-27T19:55:31.683Z,71.23
2022-07-27T19:57:58.629Z,71.29
2022-07-27T20:00:25.295Z,71.32
2022-07-27T20:02:55.444Z,71.66
2022-07-27T20:05:22.200Z,71.81
2022-07-27T20:07:48.846Z,71.72
2022-07-27T20:10:15.603Z,72.09
2022-07-27T20:12:42.283Z,72.53
2022-07-27T20:15:09.267Z,72.46
2022-07-27T20:17:40.518Z,72.39
2022-07-27T20:20:08.610Z,72.32
2022-07-27T20:22:35.398Z,72.44
2022-07-27T20:25:02.671Z,71.93
2022-07-27T20:27:29.475Z,72.04
2022-07-27T20:29:56.154Z,71.59
2022-07-27T20:32:22.786Z,71.40
2022-07-27T20:34:49.521Z,71.88
2022-07-27T20:37:16.223Z,72.08
2022-07-27T20:39:42.862Z,71.76
2022-07-27T20:42:10.845Z,72.08
2022-07-27T20:44:37.623Z,71.99
2022-07-27T20:47:07.971Z,72.29
2022-07-27T20:49:34.716Z,72.25
2022-07-27T20:52:01.741Z,72.19
2022-07-27T20:54:29.088Z,72.09
2022-07-27T20:56:57.086Z,71.84
2022-07-27T20:59:24.177Z,71.86
2022-07-27T21:01:51.100Z,71.78
2022-07-27T21:04:27.035Z,71.81
2022-07-27T21:06:54.244Z,71.97
2022-07-27T21:09:22.049Z,71.92
2022-07-27T21:11:49.184Z,72.13
2022-07-27T21:14:15.969Z,72.15
2022-07-27T21:16:42.640Z,71.90
2022-07-27T21:19:10.262Z,71.95
2022-07-27T21:21:37.368Z,71.70
2022-07-27T21:24:18.542Z,71.88
2022-07-27T21:26:50.652Z,72.12
2022-07-27T21:29:18.125Z,72.70
2022-07-27T21:31:49.457Z,72.89
2022-07-27T21:34:22.995Z,73.41
2022-07-27T21:36:49.708Z,72.91
2022-07-27T21:39:17.972Z,72.66
2022-07-27T21:41:45.204Z,73.13
2022-07-27T21:44:12.303Z,72.98
2022-07-27T21:46:39.126Z,73.16
2022-07-27T21:49:05.837Z,72.78
2022-07-27T21:51:32.580Z,73.06
2022-07-27T21:53:59.365Z,73.01
2022-07-27T21:56:26.628Z,73.67
2022-07-27T21:58:53.355Z,73.75
2022-07-27T22:01:20.001Z,73.85
2022-07-27T22:03:46.886Z,73.50
2022-07-27T22:06:13.974Z,74.05
2022-07-27T22:08:40.589Z,74.12
2022-07-27T22:11:07.357Z,73.90
2022-07-27T22:13:34.281Z,73.54
2022-07-27T22:16:01.226Z,73.67
2022-07-27T22:18:29.891Z,73.95
2022-07-27T22:20:57.040Z,74.11
2022-07-27T22:23:24.011Z,74.33
2022-07-27T22:25:51.457Z,74.60
2022-07-27T22:28:18.085Z,73.96
2022-07-27T22:30:59.968Z,74.03
2022-07-27T22:33:31.427Z,74.18
2022-07-27T22:36:02.211Z,73.97
2022-07-27T22:38:31.308Z,73.89
2022-07-27T22:41:00.529Z,74.10
2022-07-27T22:43:29.241Z,74.19
2022-07-27T22:46:05.182Z,74.21
2022-07-27T22:48:33.848Z,74.14
2022-07-27T22:51:00.544Z,74.56
2022-07-27T22:53:27.155Z,74.53
2022-07-27T22:55:53.955Z,74.40
2022-07-27T22:58:20.762Z,74.79
2022-07-27T23:00:47.490Z,74.67
2022-07-27T23:03:14.413Z,74.61
2022-07-27T23:05:41.080Z,74.53
2022-07-27T23:08:07.811Z,74.80
2022-07-27T23:10:46.368Z,74.70
2022-07-27T23:13:17.968Z,75.20
2022-07-27T23:15:45.794Z,74.64
2022-07-27T23:18:13.137Z,74.77
2022-07-27T23:20:41.214Z,74.72
2022-07-27T23:23:15.432Z,74.93
2022-07-27T23:25:44.991Z,75.19
2022-07-27T23:28:11.831Z,74.98
2022-07-27T23:30:38.810Z,75.14
2022-07-27T23:33:05.449Z,74.81
2022-07-27T23:35:32.381Z,75.04
2022-07-27T23:38:00.247Z,74.92
2022-07-27T23:40:27.332Z,74.85
2022-07-27T23:42:54.103Z,74.99
2022-07-27T23:45:20.713Z,75.02
2022-07-27T23:47:47.355Z,74.77
2022-07-27T23:50:14.141Z,74.94
2022-07-27T23:52:40.915Z,74.88
2022-07-27T23:55:10.747Z,74.89
2022-07-27T23:57:37.457Z,74.89
